sensor_id;sensor_type;location;lat;lon;timestamp;temperature;humidity
12130;DHT22;6128;59.340;18.040;2023-09-08T00:00:35;16.90;99.90
12130;DHT22;6128;59.340;18.040;2023-09-08T00:03:03;16.90;99.90
12130;DHT22;6128;59.340;18.040;2023-09-08T00:05:30;16.80;99.90
12130;DHT22;6128;59.340;18.040;2023-09-08T00:07:57;16.90;99.90
12130;DHT22;6128;59.340;18.040;2023-09-08T00:10:24;16.80;99.90
12130;DHT22;6128;59.340;18.040;2023-09-08T00:12:51;16.80;99.90
12130;DHT22;6128;59.340;18.040;2023-09-08T00:15:18;16.80;99.90
12130;DHT22;6128;59.340;18.040;2023-09-08T00:17:46;16.80;99.90
12130;DHT22;6128;59.340;18.040;2023-09-08T00:20:14;16.70;99.90
12130;DHT22;6128;59.340;18.040;2023-09-08T00:22:41;16.70;99.90
12130;DHT22;6128;59.340;18.040;2023-09-08T00:25:08;16.70;99.90
12130;DHT22;6128;59.340;18.040;2023-09-08T00:27:36;16.70;99.90
12130;DHT22;6128;59.340;18.040;2023-09-08T00:30:03;16.70;99.90
12130;DHT22;6128;59.340;18.040;2023-09-08T00:32:30;16.70;99.90
12130;DHT22;6128;59.340;18.040;2023-09-08T00:34:59;16.60;99.90
12130;DHT22;6128;59.340;18.040;2023-09-08T00:37:36;16.60;99.90
12130;DHT22;6128;59.340;18.040;2023-09-08T00:40:04;16.60;99.90
12130;DHT22;6128;59.340;18.040;2023-09-08T00:42:31;16.50;99.90
12130;DHT22;6128;59.340;18.040;2023-09-08T00:44:58;16.50;99.90
12130;DHT22;6128;59.340;18.040;2023-09-08T00:47:25;16.50;99.90
12130;DHT22;6128;59.340;18.040;2023-09-08T00:49:52;16.50;99.90
12130;DHT22;6128;59.340;18.040;2023-09-08T00:52:21;16.50;99.90
12130;DHT22;6128;59.340;18.040;2023-09-08T00:54:48;16.50;99.90
12130;DHT22;6128;59.340;18.040;2023-09-08T00:57:15;16.40;99.90
12130;DHT22;6128;59.340;18.040;2023-09-08T00:59:43;16.40;99.90
12130;DHT22;6128;59.340;18.040;2023-09-08T01:02:11;16.40;99.90
12130;DHT22;6128;59.340;18.040;2023-09-08T01:04:38;16.40;99.90
12130;DHT22;6128;59.340;18.040;2023-09-08T01:07:07;16.40;99.90
12130;DHT22;6128;59.340;18.040;2023-09-08T01:09:36;16.40;99.90
12130;DHT22;6128;59.340;18.040;2023-09-08T01:12:16;16.40;99.90
12130;DHT22;6128;59.340;18.040;2023-09-08T01:14:44;16.40;99.90
12130;DHT22;6128;59.340;18.040;2023-09-08T01:17:11;16.40;99.90
12130;DHT22;6128;59.340;18.040;2023-09-08T01:19:39;16.30;99.90
12130;DHT22;6128;59.340;18.040;2023-09-08T01:22:29;16.40;99.90
12130;DHT22;6128;59.340;18.040;2023-09-08T01:25:09;16.30;99.90
12130;DHT22;6128;59.340;18.040;2023-09-08T01:27:43;16.40;99.90
12130;DHT22;6128;59.340;18.040;2023-09-08T01:30:13;16.30;99.90
12130;DHT22;6128;59.340;18.040;2023-09-08T01:32:41;16.30;99.90
12130;DHT22;6128;59.340;18.040;2023-09-08T01:35:08;16.30;99.90
12130;DHT22;6128;59.340;18.040;2023-09-08T01:37:36;16.30;99.90
12130;DHT22;6128;59.340;18.040;2023-09-08T01:40:08;16.30;99.90
12130;DHT22;6128;59.340;18.040;2023-09-08T01:42:36;16.30;99.90
12130;DHT22;6128;59.340;18.040;2023-09-08T01:45:04;16.20;99.90
12130;DHT22;6128;59.340;18.040;2023-09-08T01:47:31;16.30;99.90
12130;DHT22;6128;59.340;18.040;2023-09-08T01:49:59;16.20;99.90
12130;DHT22;6128;59.340;18.040;2023-09-08T01:52:26;16.20;99.90
12130;DHT22;6128;59.340;18.040;2023-09-08T01:54:53;16.20;99.90
12130;DHT22;6128;59.340;18.040;2023-09-08T01:57:22;16.20;99.90
12130;DHT22;6128;59.340;18.040;2023-09-08T01:59:49;16.20;99.90
12130;DHT22;6128;59.340;18.040;2023-09-08T02:02:16;16.20;99.90
12130;DHT22;6128;59.340;18.040;2023-09-08T02:04:43;16.20;99.90
12130;DHT22;6128;59.340;18.040;2023-09-08T02:07:10;16.10;99.90
12130;DHT22;6128;59.340;18.040;2023-09-08T02:09:38;16.20;99.90
12130;DHT22;6128;59.340;18.040;2023-09-08T02:12:05;16.20;99.90
12130;DHT22;6128;59.340;18.040;2023-09-08T02:14:34;16.20;99.90
12130;DHT22;6128;59.340;18.040;2023-09-08T02:17:01;16.20;99.90
12130;DHT22;6128;59.340;18.040;2023-09-08T02:19:29;16.20;99.90
12130;DHT22;6128;59.340;18.040;2023-09-08T02:21:56;16.20;99.90
12130;DHT22;6128;59.340;18.040;2023-09-08T02:24:23;16.20;99.90
12130;DHT22;6128;59.340;18.040;2023-09-08T02:26:50;16.20;99.90
12130;DHT22;6128;59.340;18.040;2023-09-08T02:29:17;16.20;99.90
12130;DHT22;6128;59.340;18.040;2023-09-08T02:31:46;16.20;99.90
12130;DHT22;6128;59.340;18.040;2023-09-08T02:34:13;16.10;99.90
12130;DHT22;6128;59.340;18.040;2023-09-08T02:36:40;16.20;99.90
12130;DHT22;6128;59.340;18.040;2023-09-08T02:39:07;16.10;99.90
12130;DHT22;6128;59.340;18.040;2023-09-08T02:41:34;16.10;99.90
12130;DHT22;6128;59.340;18.040;2023-09-08T02:44:02;16.10;99.90
12130;DHT22;6128;59.340;18.040;2023-09-08T02:46:29;16.10;99.90
12130;DHT22;6128;59.340;18.040;2023-09-08T02:48:57;16.00;99.90
12130;DHT22;6128;59.340;18.040;2023-09-08T02:51:25;16.10;99.90
12130;DHT22;6128;59.340;18.040;2023-09-08T02:53:52;16.10;99.90
12130;DHT22;6128;59.340;18.040;2023-09-08T02:56:19;16.00;99.90
12130;DHT22;6128;59.340;18.040;2023-09-08T02:58:46;16.00;99.90
12130;DHT22;6128;59.340;18.040;2023-09-08T03:01:20;16.00;99.90
12130;DHT22;6128;59.340;18.040;2023-09-08T03:04:04;16.00;99.90
12130;DHT22;6128;59.340;18.040;2023-09-08T03:06:31;16.00;99.90
12130;DHT22;6128;59.340;18.040;2023-09-08T03:08:58;16.00;99.90
12130;DHT22;6128;59.340;18.040;2023-09-08T03:11:25;16.00;99.90
12130;DHT22;6128;59.340;18.040;2023-09-08T03:13:52;16.00;99.90
12130;DHT22;6128;59.340;18.040;2023-09-08T03:16:19;16.00;99.90
12130;DHT22;6128;59.340;18.040;2023-09-08T03:18:46;16.00;99.90
12130;DHT22;6128;59.340;18.040;2023-09-08T03:21:15;16.00;99.90
12130;DHT22;6128;59.340;18.040;2023-09-08T03:23:43;16.00;99.90
12130;DHT22;6128;59.340;18.040;2023-09-08T03:26:11;16.00;99.90
12130;DHT22;6128;59.340;18.040;2023-09-08T03:28:38;16.00;99.90
12130;DHT22;6128;59.340;18.040;2023-09-08T03:31:06;16.00;99.90
12130;DHT22;6128;59.340;18.040;2023-09-08T03:33:33;16.00;99.90
12130;DHT22;6128;59.340;18.040;2023-09-08T03:36:00;15.90;99.90
12130;DHT22;6128;59.340;18.040;2023-09-08T03:38:29;16.00;99.90
12130;DHT22;6128;59.340;18.040;2023-09-08T03:40:56;16.00;99.90
12130;DHT22;6128;59.340;18.040;2023-09-08T03:43:23;15.90;99.90
12130;DHT22;6128;59.340;18.040;2023-09-08T03:45:50;15.90;99.90
12130;DHT22;6128;59.340;18.040;2023-09-08T03:48:17;15.90;99.90
12130;DHT22;6128;59.340;18.040;2023-09-08T03:50:44;15.90;99.90
12130;DHT22;6128;59.340;18.040;2023-09-08T03:53:12;15.90;99.90
12130;DHT22;6128;59.340;18.040;2023-09-08T03:55:40;15.90;99.90
12130;DHT22;6128;59.340;18.040;2023-09-08T03:58:07;15.90;99.90
12130;DHT22;6128;59.340;18.040;2023-09-08T04:00:34;15.90;99.90
12130;DHT22;6128;59.340;18.040;2023-09-08T04:03:02;15.90;99.90
12130;DHT22;6128;59.340;18.040;2023-09-08T04:05:30;15.90;99.90
12130;DHT22;6128;59.340;18.040;2023-09-08T04:07:58;15.90;99.90
12130;DHT22;6128;59.340;18.040;2023-09-08T04:10:27;15.90;99.90
12130;DHT22;6128;59.340;18.040;2023-09-08T04:12:56;15.90;99.90
12130;DHT22;6128;59.340;18.040;2023-09-08T04:15:23;15.90;99.90
12130;DHT22;6128;59.340;18.040;2023-09-08T04:17:50;15.90;99.90
12130;DHT22;6128;59.340;18.040;2023-09-08T04:20:18;15.90;99.90
12130;DHT22;6128;59.340;18.040;2023-09-08T04:22:45;15.90;99.90
12130;DHT22;6128;59.340;18.040;2023-09-08T04:25:13;16.00;99.90
12130;DHT22;6128;59.340;18.040;2023-09-08T04:27:40;16.00;99.90
12130;DHT22;6128;59.340;18.040;2023-09-08T04:30:09;16.00;99.90
12130;DHT22;6128;59.340;18.040;2023-09-08T04:32:36;16.10;99.90
12130;DHT22;6128;59.340;18.040;2023-09-08T04:35:05;16.10;99.90
12130;DHT22;6128;59.340;18.040;2023-09-08T04:37:32;16.20;99.90
12130;DHT22;6128;59.340;18.040;2023-09-08T04:39:59;16.20;99.90
12130;DHT22;6128;59.340;18.040;2023-09-08T04:42:26;16.20;99.90
12130;DHT22;6128;59.340;18.040;2023-09-08T04:44:53;16.30;99.90
12130;DHT22;6128;59.340;18.040;2023-09-08T04:47:22;16.40;99.90
12130;DHT22;6128;59.340;18.040;2023-09-08T04:49:49;16.40;99.90
12130;DHT22;6128;59.340;18.040;2023-09-08T04:52:16;16.50;99.90
12130;DHT22;6128;59.340;18.040;2023-09-08T04:54:43;16.60;99.90
12130;DHT22;6128;59.340;18.040;2023-09-08T04:57:10;16.60;99.90
12130;DHT22;6128;59.340;18.040;2023-09-08T04:59:38;16.70;99.90
12130;DHT22;6128;59.340;18.040;2023-09-08T05:02:05;16.80;99.90
12130;DHT22;6128;59.340;18.040;2023-09-08T05:04:34;16.80;99.90
12130;DHT22;6128;59.340;18.040;2023-09-08T05:07:01;16.80;99.90
12130;DHT22;6128;59.340;18.040;2023-09-08T05:09:28;16.90;99.90
12130;DHT22;6128;59.340;18.040;2023-09-08T05:11:55;17.00;99.90
12130;DHT22;6128;59.340;18.040;2023-09-08T05:14:25;17.00;99.90
12130;DHT22;6128;59.340;18.040;2023-09-08T05:16:52;17.10;99.90
12130;DHT22;6128;59.340;18.040;2023-09-08T05:19:21;17.20;99.90
12130;DHT22;6128;59.340;18.040;2023-09-08T05:21:53;17.20;99.90
12130;DHT22;6128;59.340;18.040;2023-09-08T05:24:20;17.20;99.90
12130;DHT22;6128;59.340;18.040;2023-09-08T05:26:47;17.30;99.90
12130;DHT22;6128;59.340;18.040;2023-09-08T05:29:14;17.40;99.90
12130;DHT22;6128;59.340;18.040;2023-09-08T05:31:42;17.40;99.90
12130;DHT22;6128;59.340;18.040;2023-09-08T05:34:09;17.50;99.90
12130;DHT22;6128;59.340;18.040;2023-09-08T05:36:36;17.50;99.90
12130;DHT22;6128;59.340;18.040;2023-09-08T05:39:07;17.60;99.90
12130;DHT22;6128;59.340;18.040;2023-09-08T05:41:34;17.60;99.90
12130;DHT22;6128;59.340;18.040;2023-09-08T05:44:01;17.70;99.90
12130;DHT22;6128;59.340;18.040;2023-09-08T05:46:28;17.70;99.90
12130;DHT22;6128;59.340;18.040;2023-09-08T05:48:55;17.70;99.90
12130;DHT22;6128;59.340;18.040;2023-09-08T05:51:22;17.70;99.90
12130;DHT22;6128;59.340;18.040;2023-09-08T05:53:49;17.70;99.90
12130;DHT22;6128;59.340;18.040;2023-09-08T05:56:19;17.80;99.90
12130;DHT22;6128;59.340;18.040;2023-09-08T05:58:46;17.80;99.90
12130;DHT22;6128;59.340;18.040;2023-09-08T06:01:14;17.90;99.90
12130;DHT22;6128;59.340;18.040;2023-09-08T06:03:41;17.90;99.90
12130;DHT22;6128;59.340;18.040;2023-09-08T06:06:09;18.00;99.90
12130;DHT22;6128;59.340;18.040;2023-09-08T06:08:36;18.00;99.90
12130;DHT22;6128;59.340;18.040;2023-09-08T06:11:03;18.10;99.90
12130;DHT22;6128;59.340;18.040;2023-09-08T06:13:32;18.10;99.90
12130;DHT22;6128;59.340;18.040;2023-09-08T06:15:59;18.10;99.90
12130;DHT22;6128;59.340;18.040;2023-09-08T06:18:28;18.10;99.90
12130;DHT22;6128;59.340;18.040;2023-09-08T06:20:56;18.20;99.90
12130;DHT22;6128;59.340;18.040;2023-09-08T06:23:23;18.20;99.90
12130;DHT22;6128;59.340;18.040;2023-09-08T06:25:50;18.30;99.90
12130;DHT22;6128;59.340;18.040;2023-09-08T06:28:17;18.40;99.90
12130;DHT22;6128;59.340;18.040;2023-09-08T06:30:46;18.40;99.90
12130;DHT22;6128;59.340;18.040;2023-09-08T06:33:13;18.40;99.90
12130;DHT22;6128;59.340;18.040;2023-09-08T06:35:40;18.40;99.90
12130;DHT22;6128;59.340;18.040;2023-09-08T06:38:07;18.40;99.90
12130;DHT22;6128;59.340;18.040;2023-09-08T06:40:34;18.40;99.90
12130;DHT22;6128;59.340;18.040;2023-09-08T06:43:01;18.50;99.90
12130;DHT22;6128;59.340;18.040;2023-09-08T06:45:28;18.60;99.90
12130;DHT22;6128;59.340;18.040;2023-09-08T06:47:58;18.60;99.90
12130;DHT22;6128;59.340;18.040;2023-09-08T06:50:26;18.70;99.90
12130;DHT22;6128;59.340;18.040;2023-09-08T06:52:54;18.70;99.90
12130;DHT22;6128;59.340;18.040;2023-09-08T06:55:21;18.80;99.90
12130;DHT22;6128;59.340;18.040;2023-09-08T06:57:48;18.90;99.90
12130;DHT22;6128;59.340;18.040;2023-09-08T07:00:16;19.00;99.90
12130;DHT22;6128;59.340;18.040;2023-09-08T07:02:46;19.10;99.90
12130;DHT22;6128;59.340;18.040;2023-09-08T07:05:16;19.20;99.90
12130;DHT22;6128;59.340;18.040;2023-09-08T07:07:44;19.30;99.90
12130;DHT22;6128;59.340;18.040;2023-09-08T07:10:12;19.40;99.90
12130;DHT22;6128;59.340;18.040;2023-09-08T07:12:39;19.50;99.90
12130;DHT22;6128;59.340;18.040;2023-09-08T07:15:07;19.50;99.90
12130;DHT22;6128;59.340;18.040;2023-09-08T07:17:35;19.50;99.90
12130;DHT22;6128;59.340;18.040;2023-09-08T07:20:03;19.50;99.90
12130;DHT22;6128;59.340;18.040;2023-09-08T07:22:34;19.50;99.90
12130;DHT22;6128;59.340;18.040;2023-09-08T07:25:01;19.50;99.90
12130;DHT22;6128;59.340;18.040;2023-09-08T07:27:29;19.50;99.90
12130;DHT22;6128;59.340;18.040;2023-09-08T07:29:57;19.60;99.90
12130;DHT22;6128;59.340;18.040;2023-09-08T07:32:26;19.60;99.90
12130;DHT22;6128;59.340;18.040;2023-09-08T07:34:54;19.60;99.90
12130;DHT22;6128;59.340;18.040;2023-09-08T07:37:21;19.50;99.90
12130;DHT22;6128;59.340;18.040;2023-09-08T07:39:51;19.50;99.90
12130;DHT22;6128;59.340;18.040;2023-09-08T07:42:18;19.70;99.90
12130;DHT22;6128;59.340;18.040;2023-09-08T07:44:45;19.80;99.90
12130;DHT22;6128;59.340;18.040;2023-09-08T07:47:13;19.70;99.90
12130;DHT22;6128;59.340;18.040;2023-09-08T07:49:46;19.60;99.90
12130;DHT22;6128;59.340;18.040;2023-09-08T07:52:13;19.60;99.90
12130;DHT22;6128;59.340;18.040;2023-09-08T07:54:41;19.50;99.90
12130;DHT22;6128;59.340;18.040;2023-09-08T07:57:10;19.50;99.90
12130;DHT22;6128;59.340;18.040;2023-09-08T07:59:37;19.60;99.90
12130;DHT22;6128;59.340;18.040;2023-09-08T08:02:04;19.90;99.90
12130;DHT22;6128;59.340;18.040;2023-09-08T08:04:31;20.20;99.90
12130;DHT22;6128;59.340;18.040;2023-09-08T08:06:58;20.40;99.90
12130;DHT22;6128;59.340;18.040;2023-09-08T08:09:25;20.50;99.90
12130;DHT22;6128;59.340;18.040;2023-09-08T08:11:52;20.90;99.90
12130;DHT22;6128;59.340;18.040;2023-09-08T08:14:21;21.20;99.90
12130;DHT22;6128;59.340;18.040;2023-09-08T08:16:48;21.60;99.90
12130;DHT22;6128;59.340;18.040;2023-09-08T08:19:15;22.00;99.90
12130;DHT22;6128;59.340;18.040;2023-09-08T08:21:42;22.60;99.90
12130;DHT22;6128;59.340;18.040;2023-09-08T08:24:09;22.90;99.90
12130;DHT22;6128;59.340;18.040;2023-09-08T08:26:36;23.30;99.90
12130;DHT22;6128;59.340;18.040;2023-09-08T08:29:03;23.80;99.90
12130;DHT22;6128;59.340;18.040;2023-09-08T08:31:32;24.30;99.90
12130;DHT22;6128;59.340;18.040;2023-09-08T08:33:59;24.70;99.90
12130;DHT22;6128;59.340;18.040;2023-09-08T08:36:26;24.90;99.90
12130;DHT22;6128;59.340;18.040;2023-09-08T08:38:53;25.30;99.90
12130;DHT22;6128;59.340;18.040;2023-09-08T08:41:20;25.30;99.90
12130;DHT22;6128;59.340;18.040;2023-09-08T08:43:48;25.10;99.90
12130;DHT22;6128;59.340;18.040;2023-09-08T08:46:16;25.00;99.90
12130;DHT22;6128;59.340;18.040;2023-09-08T08:48:48;25.20;99.90
12130;DHT22;6128;59.340;18.040;2023-09-08T08:51:18;25.30;99.90
12130;DHT22;6128;59.340;18.040;2023-09-08T08:53:45;25.60;99.90
12130;DHT22;6128;59.340;18.040;2023-09-08T08:56:12;25.50;99.90
12130;DHT22;6128;59.340;18.040;2023-09-08T08:58:40;25.30;99.90
12130;DHT22;6128;59.340;18.040;2023-09-08T09:01:07;25.20;99.90
12130;DHT22;6128;59.340;18.040;2023-09-08T09:03:38;25.30;99.90
12130;DHT22;6128;59.340;18.040;2023-09-08T09:06:09;25.60;99.90
12130;DHT22;6128;59.340;18.040;2023-09-08T09:08:37;25.80;99.90
12130;DHT22;6128;59.340;18.040;2023-09-08T09:11:05;26.30;99.90
12130;DHT22;6128;59.340;18.040;2023-09-08T09:13:32;26.70;99.90
12130;DHT22;6128;59.340;18.040;2023-09-08T09:16:00;26.80;99.90
12130;DHT22;6128;59.340;18.040;2023-09-08T09:18:29;26.30;99.90
12130;DHT22;6128;59.340;18.040;2023-09-08T09:20:58;25.40;99.90
12130;DHT22;6128;59.340;18.040;2023-09-08T09:23:31;24.70;99.90
12130;DHT22;6128;59.340;18.040;2023-09-08T09:25:59;24.10;99.90
12130;DHT22;6128;59.340;18.040;2023-09-08T09:28:28;23.80;99.90
12130;DHT22;6128;59.340;18.040;2023-09-08T09:30:55;23.50;99.90
12130;DHT22;6128;59.340;18.040;2023-09-08T09:33:23;23.30;99.90
12130;DHT22;6128;59.340;18.040;2023-09-08T09:35:52;23.30;99.90
12130;DHT22;6128;59.340;18.040;2023-09-08T09:38:20;23.30;99.90
12130;DHT22;6128;59.340;18.040;2023-09-08T09:40:49;23.20;99.90
12130;DHT22;6128;59.340;18.040;2023-09-08T09:43:16;23.10;99.90
12130;DHT22;6128;59.340;18.040;2023-09-08T09:45:44;23.20;99.90
12130;DHT22;6128;59.340;18.040;2023-09-08T09:48:21;23.10;99.90
12130;DHT22;6128;59.340;18.040;2023-09-08T09:50:49;23.10;99.90
12130;DHT22;6128;59.340;18.040;2023-09-08T09:53:18;23.00;99.90
12130;DHT22;6128;59.340;18.040;2023-09-08T09:55:45;22.80;99.90
12130;DHT22;6128;59.340;18.040;2023-09-08T09:58:14;22.80;99.90
12130;DHT22;6128;59.340;18.040;2023-09-08T10:00:41;22.80;99.90
12130;DHT22;6128;59.340;18.040;2023-09-08T10:03:13;22.90;99.90
12130;DHT22;6128;59.340;18.040;2023-09-08T10:05:41;22.90;99.90
12130;DHT22;6128;59.340;18.040;2023-09-08T10:08:08;22.90;99.90
12130;DHT22;6128;59.340;18.040;2023-09-08T10:10:35;22.90;99.90
12130;DHT22;6128;59.340;18.040;2023-09-08T10:13:06;23.00;99.90
12130;DHT22;6128;59.340;18.040;2023-09-08T10:15:35;22.90;99.90
12130;DHT22;6128;59.340;18.040;2023-09-08T10:18:05;22.80;99.90
12130;DHT22;6128;59.340;18.040;2023-09-08T10:20:33;22.80;99.90
12130;DHT22;6128;59.340;18.040;2023-09-08T10:23:06;22.70;99.90
12130;DHT22;6128;59.340;18.040;2023-09-08T10:25:37;22.70;99.90
12130;DHT22;6128;59.340;18.040;2023-09-08T10:28:05;22.70;99.90
12130;DHT22;6128;59.340;18.040;2023-09-08T10:30:35;22.80;99.90
12130;DHT22;6128;59.340;18.040;2023-09-08T10:33:03;22.80;99.90
12130;DHT22;6128;59.340;18.040;2023-09-08T10:35:32;22.90;99.90
12130;DHT22;6128;59.340;18.040;2023-09-08T10:38:23;22.90;99.90
12130;DHT22;6128;59.340;18.040;2023-09-08T10:40:51;22.90;99.90
12130;DHT22;6128;59.340;18.040;2023-09-08T10:43:18;22.90;99.90
12130;DHT22;6128;59.340;18.040;2023-09-08T10:45:47;23.00;99.90
12130;DHT22;6128;59.340;18.040;2023-09-08T10:48:15;23.00;99.90
12130;DHT22;6128;59.340;18.040;2023-09-08T10:50:42;23.10;99.90
12130;DHT22;6128;59.340;18.040;2023-09-08T10:53:15;23.10;99.90
12130;DHT22;6128;59.340;18.040;2023-09-08T10:55:43;23.20;99.90
12130;DHT22;6128;59.340;18.040;2023-09-08T10:58:31;23.20;99.90
12130;DHT22;6128;59.340;18.040;2023-09-08T11:01:01;23.20;99.90
12130;DHT22;6128;59.340;18.040;2023-09-08T11:03:43;23.30;99.90
12130;DHT22;6128;59.340;18.040;2023-09-08T11:06:15;23.40;99.90
12130;DHT22;6128;59.340;18.040;2023-09-08T11:08:44;23.30;99.90
12130;DHT22;6128;59.340;18.040;2023-09-08T11:11:11;23.30;99.90
12130;DHT22;6128;59.340;18.040;2023-09-08T11:13:39;23.30;99.90
12130;DHT22;6128;59.340;18.040;2023-09-08T11:16:08;23.30;99.90
12130;DHT22;6128;59.340;18.040;2023-09-08T11:18:35;23.30;99.90
12130;DHT22;6128;59.340;18.040;2023-09-08T11:21:04;23.30;99.90
12130;DHT22;6128;59.340;18.040;2023-09-08T11:23:34;23.40;99.90
12130;DHT22;6128;59.340;18.040;2023-09-08T11:26:01;23.50;99.90
12130;DHT22;6128;59.340;18.040;2023-09-08T11:28:28;23.40;99.90
12130;DHT22;6128;59.340;18.040;2023-09-08T11:30:55;23.40;99.90
12130;DHT22;6128;59.340;18.040;2023-09-08T11:33:24;23.30;99.90
12130;DHT22;6128;59.340;18.040;2023-09-08T11:35:51;23.40;99.90
12130;DHT22;6128;59.340;18.040;2023-09-08T11:38:24;23.40;99.90
12130;DHT22;6128;59.340;18.040;2023-09-08T11:40:51;23.50;99.90
12130;DHT22;6128;59.340;18.040;2023-09-08T11:43:19;23.50;99.90
12130;DHT22;6128;59.340;18.040;2023-09-08T11:45:46;23.50;99.90
12130;DHT22;6128;59.340;18.040;2023-09-08T11:48:14;23.60;99.90
12130;DHT22;6128;59.340;18.040;2023-09-08T11:50:43;23.60;99.90
12130;DHT22;6128;59.340;18.040;2023-09-08T11:53:10;23.60;99.90
12130;DHT22;6128;59.340;18.040;2023-09-08T11:55:38;23.50;99.90
12130;DHT22;6128;59.340;18.040;2023-09-08T11:58:06;23.50;99.90
12130;DHT22;6128;59.340;18.040;2023-09-08T12:00:33;23.50;99.90
12130;DHT22;6128;59.340;18.040;2023-09-08T12:03:10;23.40;99.90
12130;DHT22;6128;59.340;18.040;2023-09-08T12:05:38;23.40;99.90
12130;DHT22;6128;59.340;18.040;2023-09-08T12:08:07;23.50;99.90
12130;DHT22;6128;59.340;18.040;2023-09-08T12:10:41;23.50;99.90
12130;DHT22;6128;59.340;18.040;2023-09-08T12:13:08;23.50;99.90
12130;DHT22;6128;59.340;18.040;2023-09-08T12:15:36;23.50;99.90
12130;DHT22;6128;59.340;18.040;2023-09-08T12:18:05;23.50;99.90
12130;DHT22;6128;59.340;18.040;2023-09-08T12:20:34;23.60;99.90
12130;DHT22;6128;59.340;18.040;2023-09-08T12:23:03;23.80;99.90
12130;DHT22;6128;59.340;18.040;2023-09-08T12:25:32;23.90;99.90
12130;DHT22;6128;59.340;18.040;2023-09-08T12:28:00;23.90;99.90
12130;DHT22;6128;59.340;18.040;2023-09-08T12:30:28;23.80;99.90
12130;DHT22;6128;59.340;18.040;2023-09-08T12:32:59;23.70;99.90
12130;DHT22;6128;59.340;18.040;2023-09-08T12:35:26;23.70;99.90
12130;DHT22;6128;59.340;18.040;2023-09-08T12:37:57;23.60;99.90
12130;DHT22;6128;59.340;18.040;2023-09-08T12:40:26;23.70;99.90
12130;DHT22;6128;59.340;18.040;2023-09-08T12:42:54;23.60;99.90
12130;DHT22;6128;59.340;18.040;2023-09-08T12:45:25;23.70;99.90
12130;DHT22;6128;59.340;18.040;2023-09-08T12:47:52;23.80;99.90
12130;DHT22;6128;59.340;18.040;2023-09-08T12:50:20;23.90;99.90
12130;DHT22;6128;59.340;18.040;2023-09-08T12:52:47;24.00;99.90
12130;DHT22;6128;59.340;18.040;2023-09-08T12:55:14;24.00;99.90
12130;DHT22;6128;59.340;18.040;2023-09-08T12:57:42;24.00;99.90
12130;DHT22;6128;59.340;18.040;2023-09-08T13:00:11;24.10;99.90
12130;DHT22;6128;59.340;18.040;2023-09-08T13:02:39;24.00;99.90
12130;DHT22;6128;59.340;18.040;2023-09-08T13:05:07;24.10;99.90
12130;DHT22;6128;59.340;18.040;2023-09-08T13:07:34;24.10;99.90
12130;DHT22;6128;59.340;18.040;2023-09-08T13:10:02;24.20;99.90
12130;DHT22;6128;59.340;18.040;2023-09-08T13:12:29;24.20;99.90
12130;DHT22;6128;59.340;18.040;2023-09-08T13:14:56;24.30;99.90
12130;DHT22;6128;59.340;18.040;2023-09-08T13:17:25;24.30;99.90
12130;DHT22;6128;59.340;18.040;2023-09-08T13:19:52;24.30;99.90
12130;DHT22;6128;59.340;18.040;2023-09-08T13:22:20;24.30;99.90
12130;DHT22;6128;59.340;18.040;2023-09-08T13:24:47;24.40;99.90
12130;DHT22;6128;59.340;18.040;2023-09-08T13:27:14;24.40;99.90
12130;DHT22;6128;59.340;18.040;2023-09-08T13:29:43;24.40;99.90
12130;DHT22;6128;59.340;18.040;2023-09-08T13:32:10;24.30;99.90
12130;DHT22;6128;59.340;18.040;2023-09-08T13:34:38;24.40;99.90
12130;DHT22;6128;59.340;18.040;2023-09-08T13:37:05;24.40;99.90
12130;DHT22;6128;59.340;18.040;2023-09-08T13:39:33;24.30;99.90
12130;DHT22;6128;59.340;18.040;2023-09-08T13:42:01;24.20;99.90
12130;DHT22;6128;59.340;18.040;2023-09-08T13:44:28;24.10;99.90
12130;DHT22;6128;59.340;18.040;2023-09-08T13:46:55;24.00;99.90
12130;DHT22;6128;59.340;18.040;2023-09-08T13:49:22;23.90;99.90
12130;DHT22;6128;59.340;18.040;2023-09-08T13:51:51;23.90;99.90
12130;DHT22;6128;59.340;18.040;2023-09-08T13:54:19;23.90;99.90
12130;DHT22;6128;59.340;18.040;2023-09-08T13:56:57;23.90;99.90
12130;DHT22;6128;59.340;18.040;2023-09-08T13:59:26;24.00;99.90
12130;DHT22;6128;59.340;18.040;2023-09-08T14:01:54;24.00;99.90
12130;DHT22;6128;59.340;18.040;2023-09-08T14:04:21;24.00;99.90
12130;DHT22;6128;59.340;18.040;2023-09-08T14:06:48;24.00;99.90
12130;DHT22;6128;59.340;18.040;2023-09-08T14:09:17;24.00;99.90
12130;DHT22;6128;59.340;18.040;2023-09-08T14:11:44;24.00;99.90
12130;DHT22;6128;59.340;18.040;2023-09-08T14:14:11;24.10;99.90
12130;DHT22;6128;59.340;18.040;2023-09-08T14:16:38;24.10;99.90
12130;DHT22;6128;59.340;18.040;2023-09-08T14:19:05;24.10;99.90
12130;DHT22;6128;59.340;18.040;2023-09-08T14:21:32;24.00;99.90
12130;DHT22;6128;59.340;18.040;2023-09-08T14:23:59;23.90;99.90
12130;DHT22;6128;59.340;18.040;2023-09-08T14:26:28;23.90;99.90
12130;DHT22;6128;59.340;18.040;2023-09-08T14:28:55;23.90;99.90
12130;DHT22;6128;59.340;18.040;2023-09-08T14:31:22;23.80;99.90
12130;DHT22;6128;59.340;18.040;2023-09-08T14:33:49;23.80;99.90
12130;DHT22;6128;59.340;18.040;2023-09-08T14:36:19;23.80;99.90
12130;DHT22;6128;59.340;18.040;2023-09-08T14:38:47;23.80;99.90
12130;DHT22;6128;59.340;18.040;2023-09-08T14:41:16;23.80;99.90
12130;DHT22;6128;59.340;18.040;2023-09-08T14:43:46;23.80;99.90
12130;DHT22;6128;59.340;18.040;2023-09-08T14:46:13;23.70;99.90
12130;DHT22;6128;59.340;18.040;2023-09-08T14:48:40;23.80;99.90
12130;DHT22;6128;59.340;18.040;2023-09-08T14:51:07;23.80;99.90
12130;DHT22;6128;59.340;18.040;2023-09-08T14:53:34;23.80;99.90
12130;DHT22;6128;59.340;18.040;2023-09-08T14:56:08;23.80;99.90
12130;DHT22;6128;59.340;18.040;2023-09-08T14:58:35;23.80;99.90
12130;DHT22;6128;59.340;18.040;2023-09-08T15:01:05;23.80;99.90
12130;DHT22;6128;59.340;18.040;2023-09-08T15:03:33;23.80;99.90
12130;DHT22;6128;59.340;18.040;2023-09-08T15:06:01;23.80;99.90
12130;DHT22;6128;59.340;18.040;2023-09-08T15:08:28;23.70;99.90
12130;DHT22;6128;59.340;18.040;2023-09-08T15:10:55;23.70;99.90
12130;DHT22;6128;59.340;18.040;2023-09-08T15:13:22;23.70;99.90
12130;DHT22;6128;59.340;18.040;2023-09-08T15:15:49;23.70;99.90
12130;DHT22;6128;59.340;18.040;2023-09-08T15:18:18;23.80;99.90
12130;DHT22;6128;59.340;18.040;2023-09-08T15:20:51;23.80;99.90
12130;DHT22;6128;59.340;18.040;2023-09-08T15:23:19;23.80;99.90
12130;DHT22;6128;59.340;18.040;2023-09-08T15:25:53;23.70;99.90
12130;DHT22;6128;59.340;18.040;2023-09-08T15:28:21;23.70;99.90
12130;DHT22;6128;59.340;18.040;2023-09-08T15:30:48;23.60;99.90
12130;DHT22;6128;59.340;18.040;2023-09-08T15:33:18;23.40;99.90
12130;DHT22;6128;59.340;18.040;2023-09-08T15:35:46;23.30;99.90